Time;durP1;ratioP1;P1;durP2;ratioP2;P2;SDS_P1;SDS_P2;PMS_P1;PMS_P2;Temp;Humidity;BMP_temperature;BMP_pressure;BME280_temperature;BME280_humidity;BME280_pressure;Samples;Min_cycle;Max_cycle;Signal;HPM_P1;HPM_P2
2023/09/09 00:01:08;;;;;;;16.00;9.88;;;;;;;;;;5033817;28;20025;-72
2023/09/09 00:03:34;;;;;;;17.45;10.00;;;;;;;;;;5032596;28;20017;-72
2023/09/09 00:06:09;;;;;;;20.20;11.77;;;;;;;;;;5032122;28;20112;-72
2023/09/09 00:08:35;;;;;;;16.33;10.52;;;;;;;;;;5032822;28;20090;-72
2023/09/09 00:11:00;;;;;;;21.52;10.98;;;;;;;;;;5049066;28;20554;-72
2023/09/09 00:13:25;;;;;;;18.65;12.18;;;;;;;;;;5033759;28;20414;-72
2023/09/09 00:15:54;;;;;;;17.27;10.23;;;;;;;;;;5033372;28;20120;-72
2023/09/09 00:18:19;;;;;;;17.48;9.98;;;;;;;;;;5032579;28;20025;-72
2023/09/09 00:20:44;;;;;;;20.02;11.07;;;;;;;;;;5015966;28;20028;-72
2023/09/09 00:23:10;;;;;;;19.10;11.98;;;;;;;;;;5033579;28;20021;-72
2023/09/09 00:25:39;;;;;;;18.23;10.98;;;;;;;;;;5032371;28;20057;-72
2023/09/09 00:28:05;;;;;;;18.15;11.75;;;;;;;;;;5031895;28;20025;-72
2023/09/09 00:30:31;;;;;;;16.17;9.98;;;;;;;;;;5048866;28;20033;-73
2023/09/09 00:32:57;;;;;;;19.95;11.18;;;;;;;;;;5031886;28;20010;-72
2023/09/09 00:35:22;;;;;;;15.07;10.05;;;;;;;;;;5027878;28;20120;-72
2023/09/09 00:37:47;;;;;;;17.10;10.48;;;;;;;;;;5019433;28;20099;-72
2023/09/09 00:40:13;;;;;;;16.65;10.57;;;;;;;;;;5019832;28;20025;-72
2023/09/09 00:42:38;;;;;;;15.55;9.93;;;;;;;;;;5028623;28;20029;-72
2023/09/09 00:45:04;;;;;;;19.00;11.13;;;;;;;;;;5021088;28;20113;-72
2023/09/09 00:47:29;;;;;;;18.40;10.77;;;;;;;;;;5024514;28;20025;-73
2023/09/09 00:49:55;;;;;;;16.90;11.27;;;;;;;;;;5026566;28;20026;-72
2023/09/09 00:52:20;;;;;;;16.67;10.02;;;;;;;;;;5001149;28;20014;-72
2023/09/09 00:54:47;;;;;;;19.25;13.68;;;;;;;;;;5013420;28;20422;-71
2023/09/09 00:57:13;;;;;;;20.92;11.43;;;;;;;;;;5028917;28;20029;-72
2023/09/09 00:59:38;;;;;;;22.25;13.60;;;;;;;;;;5025303;28;20057;-72
2023/09/09 01:02:03;;;;;;;19.83;11.23;;;;;;;;;;5031207;28;20443;-72
2023/09/09 01:04:29;;;;;;;18.88;11.10;;;;;;;;;;5032007;28;20025;-71
2023/09/09 01:06:56;;;;;;;17.73;11.02;;;;;;;;;;5031464;28;20029;-72
2023/09/09 01:09:21;;;;;;;16.58;10.05;;;;;;;;;;5043398;28;20057;-72
2023/09/09 01:11:46;;;;;;;15.95;9.63;;;;;;;;;;5028253;28;20061;-72
2023/09/09 01:14:13;;;;;;;16.98;10.90;;;;;;;;;;5035802;23;20049;-73
2023/09/09 01:16:39;;;;;;;18.23;10.77;;;;;;;;;;5015518;28;20026;-72
2023/09/09 01:19:04;;;;;;;15.95;10.05;;;;;;;;;;5014704;28;20026;-72
2023/09/09 01:21:31;;;;;;;18.48;9.80;;;;;;;;;;5014384;28;20024;-72
2023/09/09 01:23:57;;;;;;;18.60;10.25;;;;;;;;;;5023284;28;20029;-72
2023/09/09 01:26:22;;;;;;;15.05;9.95;;;;;;;;;;5046420;28;20034;-72
2023/09/09 01:28:48;;;;;;;17.65;10.63;;;;;;;;;;5035574;28;20075;-72
2023/09/09 01:31:14;;;;;;;23.77;11.25;;;;;;;;;;5032049;28;20108;-73
2023/09/09 01:33:39;;;;;;;18.02;10.00;;;;;;;;;;5047949;28;20047;-72
2023/09/09 01:36:04;;;;;;;14.68;9.20;;;;;;;;;;5030282;28;20553;-72
2023/09/09 01:38:34;;;;;;;20.33;10.23;;;;;;;;;;5033109;28;20036;-72
2023/09/09 01:40:59;;;;;;;14.00;8.88;;;;;;;;;;5050815;28;20033;-72
2023/09/09 01:43:25;;;;;;;16.67;9.98;;;;;;;;;;5051341;28;20044;-72
2023/09/09 01:45:50;;;;;;;14.23;9.65;;;;;;;;;;5035651;28;20079;-72
2023/09/09 01:48:15;;;;;;;17.25;9.93;;;;;;;;;;5035427;28;20032;-72
2023/09/09 01:50:43;;;;;;;17.58;9.95;;;;;;;;;;5050880;28;20032;-72
2023/09/09 01:53:09;;;;;;;23.13;13.40;;;;;;;;;;5034681;28;20029;-72
2023/09/09 01:55:34;;;;;;;19.05;11.23;;;;;;;;;;5035745;28;20466;-72
2023/09/09 01:58:02;;;;;;;21.25;11.57;;;;;;;;;;5035566;28;20056;-72
2023/09/09 02:00:27;;;;;;;19.88;11.75;;;;;;;;;;5035451;28;20079;-72
2023/09/09 02:02:54;;;;;;;21.67;12.50;;;;;;;;;;5034183;28;20025;-72
2023/09/09 02:05:19;;;;;;;20.70;11.10;;;;;;;;;;5050959;28;20022;-72
2023/09/09 02:07:45;;;;;;;13.63;8.63;;;;;;;;;;5034963;28;20021;-73
2023/09/09 02:10:10;;;;;;;14.13;10.18;;;;;;;;;;5034701;28;20459;-72
2023/09/09 02:12:35;;;;;;;17.55;10.00;;;;;;;;;;5033689;28;20022;-72
2023/09/09 02:15:01;;;;;;;17.27;10.50;;;;;;;;;;5034314;28;20037;-72
2023/09/09 02:17:26;;;;;;;18.77;10.07;;;;;;;;;;5033277;28;20032;-72
2023/09/09 02:19:55;;;;;;;17.52;10.55;;;;;;;;;;5036815;28;20483;-72
2023/09/09 02:22:21;;;;;;;16.65;10.23;;;;;;;;;;5034950;28;20033;-72
2023/09/09 02:24:46;;;;;;;19.85;10.48;;;;;;;;;;5033547;28;20047;-72
2023/09/09 02:27:11;;;;;;;18.60;12.07;;;;;;;;;;5035056;28;20391;-72
2023/09/09 02:29:36;;;;;;;19.98;10.35;;;;;;;;;;5034200;28;20044;-72
2023/09/09 02:32:02;;;;;;;19.70;9.90;;;;;;;;;;5030553;28;20110;-72
2023/09/09 02:34:27;;;;;;;20.73;10.70;;;;;;;;;;5027989;28;20036;-72
2023/09/09 02:37:12;;;;;;;15.73;10.40;;;;;;;;;;5034862;28;20025;-72
2023/09/09 02:39:37;;;;;;;17.52;9.35;;;;;;;;;;5034161;28;20029;-72
2023/09/09 02:42:02;;;;;;;16.88;10.18;;;;;;;;;;5035072;28;20022;-72
2023/09/09 02:44:28;;;;;;;15.50;9.82;;;;;;;;;;5033823;28;20057;-72
2023/09/09 02:46:53;;;;;;;17.65;9.27;;;;;;;;;;5034448;28;20035;-72
2023/09/09 02:49:18;;;;;;;16.73;10.25;;;;;;;;;;5034062;28;20029;-72
2023/09/09 02:51:43;;;;;;;15.30;10.20;;;;;;;;;;5033612;28;20022;-72
2023/09/09 02:54:09;;;;;;;22.17;12.35;;;;;;;;;;5033542;28;20394;-72
2023/09/09 02:56:34;;;;;;;19.17;10.32;;;;;;;;;;5034181;28;20112;-72
2023/09/09 02:58:59;;;;;;;16.52;10.60;;;;;;;;;;5034380;28;20021;-72
2023/09/09 03:01:24;;;;;;;18.63;11.20;;;;;;;;;;5034467;28;20036;-72
2023/09/09 03:03:50;;;;;;;21.30;11.75;;;;;;;;;;5032989;28;20033;-72
2023/09/09 03:06:15;;;;;;;16.95;9.90;;;;;;;;;;5033751;28;20033;-72
2023/09/09 03:08:40;;;;;;;18.13;10.50;;;;;;;;;;5034773;28;20032;-72
2023/09/09 03:11:06;;;;;;;20.40;11.32;;;;;;;;;;5033369;28;20074;-72
2023/09/09 03:13:31;;;;;;;17.40;10.48;;;;;;;;;;5034004;28;20525;-72
2023/09/09 03:15:56;;;;;;;17.60;10.80;;;;;;;;;;5033960;28;20028;-72
2023/09/09 03:18:21;;;;;;;16.52;10.60;;;;;;;;;;5033550;28;20372;-72
2023/09/09 03:20:47;;;;;;;18.25;10.25;;;;;;;;;;5049362;28;20026;-73
2023/09/09 03:23:12;;;;;;;19.45;11.07;;;;;;;;;;5034130;28;20104;-72
2023/09/09 03:25:37;;;;;;;18.10;11.27;;;;;;;;;;5032702;28;20514;-72
2023/09/09 03:28:03;;;;;;;18.13;10.32;;;;;;;;;;5033890;28;20032;-72
2023/09/09 03:30:28;;;;;;;19.35;10.93;;;;;;;;;;5033958;28;20140;-72
2023/09/09 03:32:53;;;;;;;20.70;11.57;;;;;;;;;;5033530;28;20033;-72
2023/09/09 03:35:19;;;;;;;15.15;9.57;;;;;;;;;;5034111;28;20029;-72
2023/09/09 03:37:44;;;;;;;20.48;9.77;;;;;;;;;;5033133;28;20541;-72
2023/09/09 03:40:10;;;;;;;19.92;10.25;;;;;;;;;;5033548;28;20032;-72
2023/09/09 03:42:35;;;;;;;19.85;10.18;;;;;;;;;;5034088;28;20060;-72
2023/09/09 03:45:00;;;;;;;14.45;8.48;;;;;;;;;;5033902;28;20525;-72
2023/09/09 03:47:26;;;;;;;17.70;8.68;;;;;;;;;;5034165;28;20056;-72
2023/09/09 03:49:54;;;;;;;16.58;10.07;;;;;;;;;;5033481;28;20104;-72
2023/09/09 03:52:20;;;;;;;15.52;9.77;;;;;;;;;;5033832;28;20033;-72
2023/09/09 03:54:45;;;;;;;18.38;10.57;;;;;;;;;;5033635;28;20026;-72
2023/09/09 03:57:10;;;;;;;19.50;10.45;;;;;;;;;;5033967;28;20037;-72
2023/09/09 03:59:36;;;;;;;19.08;10.63;;;;;;;;;;5033592;28;20025;-72
2023/09/09 04:02:01;;;;;;;17.48;10.35;;;;;;;;;;5032951;28;20431;-72
2023/09/09 04:04:26;;;;;;;18.17;10.13;;;;;;;;;;5033008;28;20040;-72
2023/09/09 04:06:51;;;;;;;19.30;11.45;;;;;;;;;;5033484;28;20079;-72
2023/09/09 04:09:22;;;;;;;14.55;9.50;;;;;;;;;;5033497;28;20032;-72
2023/09/09 04:11:47;;;;;;;16.85;9.13;;;;;;;;;;5032904;28;20021;-72
2023/09/09 04:14:13;;;;;;;18.35;9.93;;;;;;;;;;5033168;28;20041;-72
2023/09/09 04:16:38;;;;;;;19.63;10.40;;;;;;;;;;5033454;28;20056;-72
2023/09/09 04:19:03;;;;;;;22.65;11.10;;;;;;;;;;5033682;28;20021;-72
2023/09/09 04:21:29;;;;;;;20.33;12.25;;;;;;;;;;5031588;28;20372;-72
2023/09/09 04:23:54;;;;;;;21.17;11.52;;;;;;;;;;5033684;28;20030;-72
2023/09/09 04:26:19;;;;;;;14.45;9.05;;;;;;;;;;5033203;28;20032;-72
2023/09/09 04:28:45;;;;;;;17.23;9.45;;;;;;;;;;5033527;28;20022;-72
2023/09/09 04:31:10;;;;;;;17.95;12.13;;;;;;;;;;5032660;28;20394;-72
2023/09/09 04:33:35;;;;;;;17.48;9.93;;;;;;;;;;5033436;28;20024;-72
2023/09/09 04:36:00;;;;;;;17.73;10.18;;;;;;;;;;5033149;28;20056;-72
2023/09/09 04:38:26;;;;;;;16.17;10.52;;;;;;;;;;5031980;28;20028;-72
2023/09/09 04:40:51;;;;;;;22.90;13.32;;;;;;;;;;5032711;28;20802;-72
2023/09/09 04:43:18;;;;;;;19.83;12.43;;;;;;;;;;5048191;28;20018;-72
2023/09/09 04:45:43;;;;;;;19.27;11.27;;;;;;;;;;5032634;28;20493;-72
2023/09/09 04:48:10;;;;;;;20.13;10.45;;;;;;;;;;5032596;28;20110;-72
2023/09/09 04:50:35;;;;;;;19.17;10.50;;;;;;;;;;5032619;28;20486;-72
2023/09/09 04:53:02;;;;;;;30.00;15.27;;;;;;;;;;5032483;28;20032;-72
2023/09/09 04:55:27;;;;;;;25.58;14.18;;;;;;;;;;5032137;28;20026;-72
2023/09/09 04:57:53;;;;;;;25.92;14.43;;;;;;;;;;5024114;28;20483;-72
2023/09/09 05:00:18;;;;;;;24.20;14.30;;;;;;;;;;5021404;28;20161;-72
2023/09/09 05:02:43;;;;;;;20.83;12.23;;;;;;;;;;5020634;28;20041;-72
2023/09/09 05:05:09;;;;;;;23.73;13.13;;;;;;;;;;5021400;28;20034;-72
2023/09/09 05:07:35;;;;;;;27.33;15.18;;;;;;;;;;5031381;28;20029;-72
2023/09/09 05:10:04;;;;;;;25.80;15.05;;;;;;;;;;5031530;28;20072;-72
2023/09/09 05:12:31;;;;;;;24.02;12.70;;;;;;;;;;5031027;28;20021;-72
2023/09/09 05:14:56;;;;;;;23.00;12.23;;;;;;;;;;5036195;28;20056;-72
2023/09/09 05:17:21;;;;;;;22.58;13.82;;;;;;;;;;5035691;28;20026;-72
2023/09/09 05:19:46;;;;;;;28.13;15.45;;;;;;;;;;5036616;28;20097;-72
2023/09/09 05:22:12;;;;;;;24.70;14.02;;;;;;;;;;5036164;28;20028;-72
2023/09/09 05:24:37;;;;;;;27.35;14.40;;;;;;;;;;5034943;28;20455;-72
2023/09/09 05:27:02;;;;;;;36.65;17.15;;;;;;;;;;5036432;28;20021;-72
2023/09/09 05:29:28;;;;;;;27.58;15.13;;;;;;;;;;5034048;28;20398;-72
2023/09/09 05:31:53;;;;;;;28.60;16.08;;;;;;;;;;5036110;28;20026;-72
2023/09/09 05:34:18;;;;;;;27.02;15.30;;;;;;;;;;5034676;28;20025;-72
2023/09/09 05:36:44;;;;;;;29.15;20.38;;;;;;;;;;5034787;28;20398;-72
2023/09/09 05:39:09;;;;;;;30.88;16.98;;;;;;;;;;5034414;28;20057;-72
2023/09/09 05:41:34;;;;;;;26.48;15.02;;;;;;;;;;5035964;28;20022;-72
2023/09/09 05:43:59;;;;;;;30.98;17.48;;;;;;;;;;5035254;28;20030;-73
2023/09/09 05:46:25;;;;;;;33.67;14.80;;;;;;;;;;5035784;28;20025;-73
2023/09/09 05:48:50;;;;;;;29.77;15.77;;;;;;;;;;5034585;28;20018;-73
2023/09/09 05:51:16;;;;;;;26.02;15.35;;;;;;;;;;5035492;28;20029;-73
2023/09/09 05:53:41;;;;;;;33.85;17.23;;;;;;;;;;5035001;28;20079;-73
2023/09/09 05:56:07;;;;;;;25.90;14.25;;;;;;;;;;5035607;28;20080;-72
2023/09/09 05:58:33;;;;;;;18.70;11.52;;;;;;;;;;5029786;28;20036;-72
2023/09/09 06:00:58;;;;;;;19.13;10.88;;;;;;;;;;5034254;28;20025;-72
2023/09/09 06:03:24;;;;;;;22.50;12.52;;;;;;;;;;5034509;28;20036;-73
2023/09/09 06:05:49;;;;;;;25.17;12.95;;;;;;;;;;5030139;28;20073;-73
2023/09/09 06:08:14;;;;;;;22.80;12.30;;;;;;;;;;5050520;28;20022;-73
2023/09/09 06:10:40;;;;;;;30.40;14.82;;;;;;;;;;5031481;28;20071;-73
2023/09/09 06:13:05;;;;;;;22.30;12.93;;;;;;;;;;5035267;28;20030;-72
2023/09/09 06:15:30;;;;;;;31.00;15.77;;;;;;;;;;5034857;28;20083;-73
2023/09/09 06:17:57;;;;;;;23.02;13.38;;;;;;;;;;5033907;28;20037;-72
2023/09/09 06:20:22;;;;;;;23.45;12.95;;;;;;;;;;5033112;28;20594;-73
2023/09/09 06:22:48;;;;;;;25.75;13.73;;;;;;;;;;5033743;28;20029;-74
2023/09/09 06:25:13;;;;;;;21.63;12.88;;;;;;;;;;5034240;28;20099;-73
2023/09/09 06:27:39;;;;;;;27.80;16.23;;;;;;;;;;5034744;28;20578;-73
2023/09/09 06:30:05;;;;;;;25.33;14.32;;;;;;;;;;5017816;28;20030;-73
2023/09/09 06:32:30;;;;;;;26.58;15.40;;;;;;;;;;5014906;28;20025;-73
2023/09/09 06:34:56;;;;;;;30.00;17.45;;;;;;;;;;5031418;28;20056;-73
2023/09/09 06:37:21;;;;;;;32.70;16.95;;;;;;;;;;5034677;28;20467;-73
2023/09/09 06:39:46;;;;;;;26.42;15.13;;;;;;;;;;5034395;28;20047;-71
2023/09/09 06:42:13;;;;;;;26.98;15.93;;;;;;;;;;5034526;28;20068;-71
2023/09/09 06:44:38;;;;;;;24.77;14.07;;;;;;;;;;5034294;28;20472;-73
2023/09/09 06:47:03;;;;;;;36.40;18.92;;;;;;;;;;5034185;28;20029;-72
2023/09/09 06:49:29;;;;;;;32.60;15.80;;;;;;;;;;5034226;28;20021;-72
2023/09/09 06:51:54;;;;;;;25.85;14.45;;;;;;;;;;5049614;28;20437;-73
2023/09/09 06:54:19;;;;;;;28.27;16.70;;;;;;;;;;5049851;28;20116;-72
2023/09/09 06:56:46;;;;;;;29.13;17.48;;;;;;;;;;5033584;28;20033;-72
2023/09/09 06:59:12;;;;;;;29.48;16.50;;;;;;;;;;5031097;28;20041;-72
2023/09/09 07:01:37;;;;;;;25.27;13.40;;;;;;;;;;5033155;28;20021;-72
2023/09/09 07:04:04;;;;;;;27.27;17.77;;;;;;;;;;5032732;28;20063;-72
2023/09/09 07:06:29;;;;;;;31.27;16.73;;;;;;;;;;5017808;28;20543;-73
2023/09/09 07:08:54;;;;;;;25.20;14.95;;;;;;;;;;5015308;28;20163;-73
2023/09/09 07:11:20;;;;;;;26.83;16.10;;;;;;;;;;5025949;28;20026;-73
2023/09/09 07:13:45;;;;;;;20.90;13.50;;;;;;;;;;5052409;23;20037;-72
2023/09/09 07:16:10;;;;;;;17.80;11.73;;;;;;;;;;5034350;28;20021;-73
2023/09/09 07:18:36;;;;;;;32.60;16.50;;;;;;;;;;5033503;28;20025;-73
2023/09/09 07:21:01;;;;;;;23.02;14.90;;;;;;;;;;5033391;28;20367;-73
2023/09/09 07:23:26;;;;;;;23.40;13.95;;;;;;;;;;5027737;28;20018;-73
2023/09/09 07:25:52;;;;;;;20.52;12.48;;;;;;;;;;5014357;28;20470;-73
2023/09/09 07:28:17;;;;;;;22.08;11.98;;;;;;;;;;5021942;28;20542;-73
2023/09/09 07:30:43;;;;;;;23.73;12.93;;;;;;;;;;5034043;28;20033;-73
2023/09/09 07:33:09;;;;;;;21.88;11.65;;;;;;;;;;5032140;28;20486;-73
2023/09/09 07:35:37;;;;;;;22.45;12.32;;;;;;;;;;5033542;28;20117;-73
2023/09/09 07:38:06;;;;;;;22.55;14.82;;;;;;;;;;5032493;28;20402;-73
2023/09/09 07:40:31;;;;;;;19.15;11.85;;;;;;;;;;5032047;28;20494;-73
2023/09/09 07:42:56;;;;;;;18.67;11.30;;;;;;;;;;5032837;28;20025;-73
2023/09/09 07:45:22;;;;;;;21.58;13.45;;;;;;;;;;5032048;28;20040;-73
2023/09/09 07:47:47;;;;;;;18.88;11.25;;;;;;;;;;5033926;28;20421;-72
2023/09/09 07:50:13;;;;;;;16.27;11.07;;;;;;;;;;5033438;28;20032;-72
2023/09/09 07:52:38;;;;;;;19.38;12.00;;;;;;;;;;5012482;28;20032;-71
2023/09/09 07:55:03;;;;;;;16.25;11.20;;;;;;;;;;5013974;28;20025;-73
2023/09/09 07:57:29;;;;;;;19.15;11.95;;;;;;;;;;5032578;28;20116;-71
2023/09/09 07:59:54;;;;;;;19.02;11.55;;;;;;;;;;5033937;28;20033;-71
2023/09/09 08:02:19;;;;;;;22.95;13.45;;;;;;;;;;5033545;28;20021;-71
2023/09/09 08:04:45;;;;;;;19.00;12.30;;;;;;;;;;5033353;28;20344;-71
2023/09/09 08:07:10;;;;;;;18.77;11.85;;;;;;;;;;5033466;28;20026;-71
2023/09/09 08:09:35;;;;;;;17.20;10.50;;;;;;;;;;5032162;28;20100;-71
2023/09/09 08:12:00;;;;;;;18.90;11.50;;;;;;;;;;5033424;28;20026;-71
2023/09/09 08:14:26;;;;;;;18.67;10.07;;;;;;;;;;5033110;28;20099;-70
2023/09/09 08:16:51;;;;;;;16.80;12.13;;;;;;;;;;5032912;28;20435;-70
2023/09/09 08:19:16;;;;;;;17.08;10.90;;;;;;;;;;5033576;28;20025;-70
2023/09/09 08:21:42;;;;;;;16.80;10.43;;;;;;;;;;5033148;28;20030;-70
2023/09/09 08:24:07;;;;;;;18.20;10.88;;;;;;;;;;5033410;28;20021;-71
2023/09/09 08:26:32;;;;;;;20.42;13.73;;;;;;;;;;5033624;28;20391;-71
2023/09/09 08:28:58;;;;;;;17.83;11.65;;;;;;;;;;5032324;28;20121;-70
2023/09/09 08:31:23;;;;;;;21.80;12.45;;;;;;;;;;5026311;28;20038;-70
2023/09/09 08:33:48;;;;;;;22.33;13.32;;;;;;;;;;5027705;28;20037;-70
2023/09/09 08:36:15;;;;;;;13.68;10.27;;;;;;;;;;5028213;28;20179;-70
2023/09/09 08:38:40;;;;;;;21.35;13.02;;;;;;;;;;5012217;28;20029;-69
2023/09/09 08:41:35;;;;;;;18.73;11.73;;;;;;;;;;5024063;28;20510;-70
2023/09/09 08:44:11;;;;;;;16.75;10.50;;;;;;;;;;5028935;28;20022;-70
2023/09/09 08:46:37;;;;;;;20.55;12.27;;;;;;;;;;5012457;28;20505;-70
2023/09/09 08:49:05;;;;;;;25.35;13.52;;;;;;;;;;5017554;28;20041;-70
2023/09/09 08:51:46;;;;;;;16.52;11.85;;;;;;;;;;5031451;28;20372;-70
2023/09/09 08:54:14;;;;;;;20.20;12.55;;;;;;;;;;5048356;28;20111;-70
2023/09/09 08:56:39;;;;;;;21.95;14.43;;;;;;;;;;5033191;28;20033;-70
2023/09/09 08:59:05;;;;;;;18.92;13.35;;;;;;;;;;5031836;28;20033;-70
2023/09/09 09:01:31;;;;;;;18.95;11.55;;;;;;;;;;5031948;28;20021;-70
2023/09/09 09:03:57;;;;;;;19.30;12.43;;;;;;;;;;5032255;28;20021;-70
2023/09/09 09:06:23;;;;;;;19.80;11.65;;;;;;;;;;5033426;28;20537;-70
2023/09/09 09:08:49;;;;;;;20.00;12.00;;;;;;;;;;5033126;28;20033;-70
2023/09/09 09:11:14;;;;;;;17.75;13.05;;;;;;;;;;5027600;28;20026;-70
2023/09/09 09:13:40;;;;;;;21.58;13.45;;;;;;;;;;5032552;28;20515;-71
2023/09/09 09:29:51;;;;;;;14.27;10.63;;;;;;;;;;5111428;27;20332;-73
2023/09/09 09:32:19;;;;;;;20.42;13.68;;;;;;;;;;5109399;28;20096;-74
2023/09/09 09:34:46;;;;;;;22.30;15.57;;;;;;;;;;5095280;28;20031;-73
2023/09/09 09:39:50;;;;;;;15.75;10.88;;;;;;;;;;5110603;27;20336;-73
2023/09/09 09:42:16;;;;;;;21.88;12.73;;;;;;;;;;5110754;28;20042;-72
2023/09/09 09:44:41;;;;;;;22.98;16.38;;;;;;;;;;5108694;28;20395;-73
2023/09/09 09:47:08;;;;;;;17.08;12.57;;;;;;;;;;5090694;28;20028;-73
2023/09/09 09:49:48;;;;;;;21.08;13.38;;;;;;;;;;5088723;28;20031;-73
2023/09/09 09:52:22;;;;;;;21.15;13.55;;;;;;;;;;5086134;28;20020;-73
2023/09/09 09:54:51;;;;;;;15.35;10.20;;;;;;;;;;5094883;28;20028;-73
2023/09/09 09:57:17;;;;;;;14.27;9.55;;;;;;;;;;5082714;28;20081;-73
2023/09/09 09:59:42;;;;;;;20.25;12.43;;;;;;;;;;5091419;28;20024;-73
2023/09/09 10:02:09;;;;;;;15.52;11.85;;;;;;;;;;5096841;28;20023;-73
2023/09/09 10:04:41;;;;;;;14.75;10.55;;;;;;;;;;5087919;28;20084;-73
2023/09/09 10:07:10;;;;;;;24.02;12.90;;;;;;;;;;5088839;28;20027;-73
2023/09/09 10:09:43;;;;;;;23.02;14.45;;;;;;;;;;5089237;28;20012;-73
2023/09/09 10:13:07;;;;;;;17.05;11.05;;;;;;;;;;5108688;28;20080;-73
2023/09/09 10:15:37;;;;;;;16.15;10.68;;;;;;;;;;5087209;28;20516;-73
2023/09/09 10:18:05;;;;;;;21.77;13.32;;;;;;;;;;5070788;28;20120;-73
2023/09/09 10:20:31;;;;;;;15.27;10.80;;;;;;;;;;5099105;28;20043;-73
2023/09/09 10:22:59;;;;;;;17.67;11.27;;;;;;;;;;5107902;28;20032;-73
2023/09/09 10:25:29;;;;;;;18.02;11.75;;;;;;;;;;5109818;28;20030;-73
2023/09/09 10:27:56;;;;;;;20.95;12.30;;;;;;;;;;5108183;28;20034;-73
2023/09/09 10:30:23;;;;;;;16.65;11.70;;;;;;;;;;5108129;28;20103;-73
2023/09/09 10:32:48;;;;;;;18.77;11.95;;;;;;;;;;5108528;28;20051;-73
2023/09/09 10:35:14;;;;;;;18.00;11.43;;;;;;;;;;5109166;28;20016;-73
2023/09/09 10:37:41;;;;;;;15.57;10.32;;;;;;;;;;5080702;28;20104;-74
2023/09/09 10:40:07;;;;;;;17.33;12.70;;;;;;;;;;5088098;28;20418;-73
2023/09/09 10:42:36;;;;;;;16.58;11.48;;;;;;;;;;5086603;28;20028;-73
2023/09/09 10:45:30;;;;;;;18.20;11.13;;;;;;;;;;5083094;28;20032;-73
2023/09/09 10:47:57;;;;;;;19.27;13.05;;;;;;;;;;5086596;28;20570;-73
2023/09/09 10:50:31;;;;;;;21.45;13.43;;;;;;;;;;5065649;28;20032;-73
2023/09/09 10:53:16;;;;;;;22.70;13.50;;;;;;;;;;5069881;28;20068;-73
2023/09/09 10:55:43;;;;;;;22.48;15.00;;;;;;;;;;5074330;28;20029;-74
2023/09/09 10:58:09;;;;;;;23.58;16.25;;;;;;;;;;5067176;28;20033;-74
2023/09/09 11:00:41;;;;;;;21.92;14.95;;;;;;;;;;5063615;28;20055;-74
2023/09/09 11:03:29;;;;;;;25.50;16.10;;;;;;;;;;5068645;28;20040;-74
2023/09/09 11:06:02;;;;;;;23.63;14.65;;;;;;;;;;5070128;28;20063;-73
2023/09/09 11:08:36;;;;;;;20.27;13.13;;;;;;;;;;5054073;28;20541;-74
2023/09/09 11:11:14;;;;;;;25.75;13.57;;;;;;;;;;5092948;28;20024;-73
2023/09/09 11:13:41;;;;;;;21.02;15.20;;;;;;;;;;5093790;28;20114;-74
2023/09/09 11:16:06;;;;;;;22.23;13.95;;;;;;;;;;5081324;28;20029;-74
2023/09/09 11:18:35;;;;;;;21.00;13.23;;;;;;;;;;5087369;28;20081;-74
2023/09/09 11:21:02;;;;;;;20.92;13.85;;;;;;;;;;5093693;28;20104;-73
2023/09/09 11:23:28;;;;;;;26.13;15.02;;;;;;;;;;5083301;28;20385;-74
2023/09/09 11:25:53;;;;;;;25.15;12.93;;;;;;;;;;5069167;28;20033;-73
2023/09/09 11:28:19;;;;;;;20.55;13.45;;;;;;;;;;5052665;28;20055;-73
2023/09/09 11:30:44;;;;;;;22.77;13.65;;;;;;;;;;5092262;28;20436;-74
2023/09/09 11:33:09;;;;;;;17.55;11.23;;;;;;;;;;5093871;28;20261;-74
2023/09/09 11:35:35;;;;;;;22.92;13.68;;;;;;;;;;5093745;28;20052;-74
2023/09/09 11:38:04;;;;;;;20.50;13.85;;;;;;;;;;5093731;28;20405;-74
2023/09/09 11:40:29;;;;;;;16.77;12.43;;;;;;;;;;5093687;28;20493;-73
2023/09/09 11:42:54;;;;;;;19.55;12.90;;;;;;;;;;5093004;28;20057;-73
2023/09/09 11:45:20;;;;;;;21.33;13.48;;;;;;;;;;5092550;28;20016;-73
2023/09/09 11:47:45;;;;;;;16.23;11.32;;;;;;;;;;5093846;28;20024;-74
2023/09/09 11:50:10;;;;;;;18.30;11.23;;;;;;;;;;5091606;28;20032;-74
2023/09/09 11:52:36;;;;;;;16.02;11.40;;;;;;;;;;5078859;28;20483;-74
2023/09/09 11:55:01;;;;;;;16.55;10.63;;;;;;;;;;5051867;28;20052;-74
2023/09/09 11:57:28;;;;;;;16.83;10.88;;;;;;;;;;5064522;28;20020;-74
2023/09/09 11:59:57;;;;;;;19.30;11.88;;;;;;;;;;5084622;28;20066;-74
2023/09/09 12:02:24;;;;;;;17.67;11.23;;;;;;;;;;5092864;28;20080;-74
2023/09/09 12:04:59;;;;;;;16.75;11.05;;;;;;;;;;5092230;28;20027;-74
2023/09/09 12:07:35;;;;;;;16.45;10.38;;;;;;;;;;5092785;28;20052;-74
2023/09/09 12:10:03;;;;;;;15.90;11.63;;;;;;;;;;5074369;28;20035;-74
2023/09/09 12:12:28;;;;;;;18.38;12.45;;;;;;;;;;5093543;28;20039;-73
2023/09/09 12:14:56;;;;;;;16.70;11.75;;;;;;;;;;5091866;28;20257;-74
2023/09/09 12:17:21;;;;;;;19.00;12.18;;;;;;;;;;5092191;28;20020;-74
2023/09/09 12:19:54;;;;;;;21.40;11.95;;;;;;;;;;5091778;28;20023;-74
2023/09/09 12:22:34;;;;;;;20.88;14.02;;;;;;;;;;5073398;28;20402;-74
2023/09/09 12:25:29;;;;;;;20.90;12.88;;;;;;;;;;5050922;28;20028;-74
2023/09/09 12:27:54;;;;;;;21.05;13.82;;;;;;;;;;5059274;28;20043;-74
2023/09/09 12:30:39;;;;;;;21.15;11.82;;;;;;;;;;5051684;28;20028;-74
2023/09/09 12:33:05;;;;;;;16.05;10.88;;;;;;;;;;5074029;28;20027;-74
2023/09/09 12:35:37;;;;;;;16.08;10.48;;;;;;;;;;5072920;28;20020;-74
2023/09/09 12:38:03;;;;;;;20.05;13.52;;;;;;;;;;5072283;28;20461;-73
2023/09/09 12:40:45;;;;;;;17.65;11.52;;;;;;;;;;5086756;28;20055;-74
2023/09/09 12:43:10;;;;;;;17.77;14.10;;;;;;;;;;5093494;28;20483;-73
2023/09/09 12:45:50;;;;;;;22.00;13.73;;;;;;;;;;5074534;28;20051;-74
2023/09/09 12:48:15;;;;;;;24.85;15.57;;;;;;;;;;5092886;28;20085;-74
2023/09/09 12:50:41;;;;;;;22.38;13.57;;;;;;;;;;5092813;28;20028;-73
2023/09/09 12:53:06;;;;;;;18.50;12.20;;;;;;;;;;5093254;28;20028;-73
2023/09/09 12:55:32;;;;;;;24.98;15.43;;;;;;;;;;5092175;28;20030;-73
2023/09/09 12:57:57;;;;;;;22.92;13.27;;;;;;;;;;5080863;28;20035;-73
2023/09/09 13:00:22;;;;;;;16.70;11.68;;;;;;;;;;5071696;28;20024;-73
2023/09/09 13:02:48;;;;;;;13.77;10.00;;;;;;;;;;5071653;28;20023;-73
2023/09/09 13:05:13;;;;;;;15.40;9.43;;;;;;;;;;5070726;28;20043;-73
2023/09/09 13:07:40;;;;;;;16.02;10.07;;;;;;;;;;5072470;28;20106;-73
2023/09/09 13:10:05;;;;;;;15.77;8.73;;;;;;;;;;5071080;28;20167;-72
2023/09/09 13:12:31;;;;;;;15.35;10.85;;;;;;;;;;5085283;28;20111;-73
2023/09/09 13:14:58;;;;;;;16.60;11.63;;;;;;;;;;5090902;28;20066;-73
2023/09/09 13:17:23;;;;;;;17.90;10.60;;;;;;;;;;5071664;28;20039;-73
2023/09/09 13:19:48;;;;;;;14.02;10.77;;;;;;;;;;5052326;28;20021;-72
2023/09/09 13:22:13;;;;;;;16.42;11.38;;;;;;;;;;5066217;28;20493;-73
2023/09/09 13:24:39;;;;;;;17.98;10.77;;;;;;;;;;5073856;28;20025;-72
2023/09/09 13:27:05;;;;;;;16.17;8.98;;;;;;;;;;5074099;28;20052;-73
2023/09/09 13:29:30;;;;;;;14.43;11.20;;;;;;;;;;5066987;28;20409;-73
2023/09/09 13:31:55;;;;;;;13.38;8.98;;;;;;;;;;5071896;28;20024;-72
2023/09/09 13:34:20;;;;;;;10.93;7.95;;;;;;;;;;5072022;28;20028;-72
2023/09/09 13:36:46;;;;;;;11.07;7.90;;;;;;;;;;5072471;28;20485;-73
2023/09/09 13:39:11;;;;;;;10.85;7.45;;;;;;;;;;5055541;28;20029;-73
2023/09/09 13:41:37;;;;;;;10.88;9.75;;;;;;;;;;5052345;28;20536;-73
2023/09/09 13:44:03;;;;;;;11.88;8.32;;;;;;;;;;5052274;28;20064;-73
2023/09/09 13:46:28;;;;;;;15.25;9.15;;;;;;;;;;5067247;28;20020;-73
2023/09/09 13:48:53;;;;;;;15.82;9.73;;;;;;;;;;5071475;28;20025;-73
2023/09/09 13:51:19;;;;;;;14.60;9.85;;;;;;;;;;5077471;28;20020;-72
2023/09/09 13:53:44;;;;;;;13.27;9.02;;;;;;;;;;5071588;28;20028;-74
2023/09/09 13:56:09;;;;;;;16.90;9.65;;;;;;;;;;5069809;28;20032;-74
2023/09/09 13:58:34;;;;;;;12.25;7.75;;;;;;;;;;5066697;28;20024;-73
2023/09/09 14:01:00;;;;;;;12.63;8.48;;;;;;;;;;5059895;28;20028;-74
2023/09/09 14:03:25;;;;;;;15.18;10.20;;;;;;;;;;5051274;28;20029;-73
2023/09/09 14:05:50;;;;;;;13.65;8.73;;;;;;;;;;5068402;28;20039;-74
2023/09/09 14:08:15;;;;;;;13.60;8.35;;;;;;;;;;5071693;28;20025;-73
2023/09/09 14:10:41;;;;;;;12.63;8.15;;;;;;;;;;5059198;28;20431;-74
2023/09/09 14:13:06;;;;;;;12.55;10.00;;;;;;;;;;5051107;28;20541;-73
2023/09/09 14:15:32;;;;;;;12.07;8.32;;;;;;;;;;5066231;28;20016;-74
2023/09/09 14:17:57;;;;;;;16.40;10.05;;;;;;;;;;5090818;28;20392;-75
2023/09/09 14:20:22;;;;;;;14.55;9.23;;;;;;;;;;5091826;28;20480;-75
2023/09/09 14:22:48;;;;;;;15.68;8.90;;;;;;;;;;5091064;28;20085;-75
2023/09/09 14:25:14;;;;;;;9.52;7.82;;;;;;;;;;5092880;28;20042;-76
2023/09/09 14:27:39;;;;;;;11.10;8.32;;;;;;;;;;5087973;28;20032;-76
2023/09/09 14:30:05;;;;;;;14.32;8.68;;;;;;;;;;5074920;28;20031;-75
2023/09/09 14:32:30;;;;;;;13.32;7.95;;;;;;;;;;5073444;28;20032;-76